Marche Airport

LIPY · 马尔凯, 意大利

罗盘
风向 的 风向 280° Ancona Falconara Airport 1/19
风: 2 kt, 1 beaufort


2 kt
改变
0 2.000 4.000 6.000 8.000 10.000
SCT 4.000 ft
BKN 6.000 ft
METAR LIPR 021850Z 28002KT 8000 SCT040 BKN060 07/06 Q1018

METAR Ancona Falconara Airport - LIPY/AOI

Ancona Falconara Airport是,意大利中的中型机场。 该机场有3条跑道: 1/19, 4/22 和 8/26. 该领域的国际民航组织标志是LIPY 它的国际航空运输协会代码是AOI.

这份报告是针对2022年12月2日 19:50, 当地时间在Federico Fellini International Airport进行的。

机场观察

风向为280°,速度为2 kt。

可见度为8 km。

有疏云,零星散落的云朵在4.000 ft的高度 和 碎云在6.000 ft的高度。 破损或更高的上限为6.000 ft。

温度为7 °C,阵风为6 °C。 露点为6 °C,相对湿度为93%。 海平面上的气压为1018 hPa (QNH)。

白天

今天,太阳从07:20升起,在16:30降落。 这适用于Ancona Falconara Airport,世界夏令时可能有所不同。 当地时间与世界标准时间之间的时差为+1 小时。 当前,没有夏令时有效。

公司介绍

我们没有关于这个机场的公司信息。

体会

到Vliegles.nl去找飞行课程,跳伞和其他飞行体验。 浏览页面,了解Ancona Falconara Airport附近所有可用的活动。 你也可以使用搜索功能来寻找你所在地附近的特定飞行课程、跳伞或其他飞行体验。

跑道

Id 标题 侧风 逆风 侧风 %
1/19 010°-190° 2 kt 100 %
4/22 045°-225° 2 kt 1 kt 82 %
8/26 080°-260° 2 kt 34 %

逆风成分最大的方向会被突出显示,并用于横风计算。 这并不一定意味着这个方向在使用。

乌云

4.000 ft SCT 疏云,零星散落的云朵
6.000 ft BKN 碎云

温度 & 天气

温度 7 °C
露点 6 °C
相对湿度 93%
风寒 6 °C
Kp-index 1 (0-9)

白天

日出
07:25 (11:17)
中午
11:58
日落
16:32

小工具

你想在你的网站上有一个关于Ancona Falconara Airport的当前航空天气(METAR)的小部件吗?

显示HTML代码

我们和第三方通过cookies跟踪您在我们网站上的互联网行为。如果你继续,我们认为你同意我们的饼干政策